Time;durP1;ratioP1;P1;durP2;ratioP2;P2;SDS_P1;SDS_P2;PMS_P1;PMS_P2;Temp;Humidity;BMP_temperature;BMP_pressure;BME280_temperature;BME280_humidity;BME280_pressure;Samples;Min_cycle;Max_cycle;Signal;HPM_P1;HPM_P2
2022/11/14 00:00:55;;;;;;;11.27;5.20;;;3.50;99.90;;;;;;5093992;28;20423;-47
2022/11/14 00:03:41;;;;;;;11.63;5.85;;;3.50;99.90;;;;;;5093642;28;20055;-48
2022/11/14 00:06:26;;;;;;;10.60;5.55;;;3.60;99.90;;;;;;5092110;28;20186;-48
2022/11/14 00:09:11;;;;;;;11.23;5.07;;;3.40;99.90;;;;;;5093679;28;20051;-49
2022/11/14 00:11:57;;;;;;;11.25;5.63;;;3.30;99.90;;;;;;5089712;28;20055;-48
2022/11/14 00:14:42;;;;;;;14.85;4.95;;;3.30;99.90;;;;;;5089253;28;20051;-46
2022/11/14 00:17:28;;;;;;;9.02;5.13;;;3.40;99.90;;;;;;5091843;28;20419;-47
2022/11/14 00:20:14;;;;;;;12.15;5.05;;;3.30;99.90;;;;;;5093256;28;20059;-46
2022/11/14 00:22:59;;;;;;;10.00;4.85;;;3.30;99.90;;;;;;5081587;28;20522;-50
2022/11/14 00:25:45;;;;;;;7.63;4.13;;;3.40;99.90;;;;;;5089094;28;20215;-46
2022/11/14 00:28:30;;;;;;;10.57;4.57;;;3.50;99.90;;;;;;5093540;28;20412;-49
2022/11/14 00:31:16;;;;;;;10.38;4.55;;;3.70;99.90;;;;;;5091401;28;20142;-48
2022/11/14 00:34:02;;;;;;;7.68;4.30;;;3.80;99.90;;;;;;5092741;28;20051;-48
2022/11/14 00:36:47;;;;;;;7.53;4.60;;;3.90;99.90;;;;;;5092796;28;20246;-50
2022/11/14 00:39:33;;;;;;;8.20;4.40;;;4.00;99.90;;;;;;5092205;28;20462;-46
2022/11/14 00:42:18;;;;;;;9.48;4.47;;;4.00;99.90;;;;;;5081613;28;20574;-48
2022/11/14 00:45:04;;;;;;;6.97;3.83;;;4.10;99.90;;;;;;5092826;28;20404;-50
2022/11/14 00:47:49;;;;;;;8.07;4.72;;;4.10;99.90;;;;;;5083619;28;20129;-47
2022/11/14 00:50:36;;;;;;;10.55;5.07;;;4.00;99.90;;;;;;5087184;28;20114;-49
2022/11/14 00:53:22;;;;;;;11.02;4.70;;;3.70;99.90;;;;;;5092162;28;20047;-48
2022/11/14 00:56:07;;;;;;;7.97;4.38;;;3.50;99.90;;;;;;5091897;28;20116;-47
2022/11/14 00:58:53;;;;;;;10.00;4.57;;;3.50;99.90;;;;;;5084251;28;20512;-48
2022/11/14 01:01:39;;;;;;;8.80;4.75;;;3.50;99.90;;;;;;5072146;28;20496;-51
2022/11/14 01:04:24;;;;;;;10.77;4.68;;;3.60;99.90;;;;;;5089357;28;20051;-50
2022/11/14 01:07:09;;;;;;;8.32;4.22;;;3.60;99.90;;;;;;5092383;28;20519;-48
2022/11/14 01:09:55;;;;;;;6.70;3.55;;;3.60;99.90;;;;;;5092880;28;20051;-49
2022/11/14 01:12:41;;;;;;;11.95;3.58;;;3.60;99.90;;;;;;5091664;28;20574;-48
2022/11/14 01:15:26;;;;;;;6.22;3.58;;;3.60;99.90;;;;;;5072291;28;20125;-47
2022/11/14 01:18:16;;;;;;;8.32;4.40;;;3.50;99.90;;;;;;5072098;28;20055;-48
2022/11/14 01:21:07;;;;;;;8.30;4.60;;;3.30;99.90;;;;;;5085035;28;20186;-47
2022/11/14 01:23:53;;;;;;;8.90;4.72;;;3.30;99.90;;;;;;5072141;28;20051;-47
2022/11/14 01:26:38;;;;;;;8.15;4.68;;;3.30;99.90;;;;;;5071929;28;20454;-47
2022/11/14 01:29:24;;;;;;;6.65;4.07;;;3.30;99.90;;;;;;5084859;28;20047;-48
2022/11/14 01:32:09;;;;;;;9.50;4.85;;;3.30;99.90;;;;;;5079700;28;20071;-47
2022/11/14 01:34:54;;;;;;;8.52;4.78;;;3.10;99.90;;;;;;5072106;28;20051;-47
2022/11/14 01:37:40;;;;;;;8.98;4.60;;;3.10;99.90;;;;;;5071830;28;20614;-47
2022/11/14 01:40:26;;;;;;;8.60;4.40;;;3.10;99.90;;;;;;5081273;28;20048;-48
2022/11/14 01:43:17;;;;;;;10.38;4.28;;;3.00;99.90;;;;;;5071582;28;20486;-47
2022/11/14 01:46:06;;;;;;;9.43;4.70;;;2.90;99.90;;;;;;5078629;28;20051;-47
2022/11/14 01:49:08;;;;;;;;;;;2.80;99.90;;;;;;5080784;28;20408;-48
2022/11/14 01:52:02;;;;;;;13.38;5.53;;;2.70;99.90;;;;;;5080535;28;19927;-47
2022/11/14 01:54:51;;;;;;;11.00;4.65;;;2.70;99.90;;;;;;5091556;28;20786;-51
2022/11/14 01:57:41;;;;;;;9.05;5.00;;;2.80;99.90;;;;;;5077193;28;20113;-50
2022/11/14 02:00:26;;;;;;;8.48;4.63;;;2.90;99.90;;;;;;5072389;28;20050;-48
2022/11/14 02:03:13;;;;;;;8.00;4.72;;;2.90;99.90;;;;;;5079148;28;20419;-49
2022/11/14 02:06:00;;;;;;;9.27;4.32;;;3.00;99.90;;;;;;5090631;28;20114;-48
2022/11/14 02:08:47;;;;;;;9.02;4.88;;;2.90;99.90;;;;;;5090719;28;20046;-47
2022/11/14 02:11:37;;;;;;;7.25;4.03;;;3.00;99.90;;;;;;5091359;28;20190;-48
2022/11/14 02:14:22;;;;;;;7.82;4.03;;;3.00;99.90;;;;;;5075802;28;20059;-47
2022/11/14 02:17:07;;;;;;;7.18;3.95;;;3.00;99.90;;;;;;5071360;28;20055;-48
2022/11/14 02:20:12;;;;;;;7.65;4.47;;;3.10;99.90;;;;;;5071549;28;20518;-48
2022/11/14 02:22:58;;;;;;;9.40;4.75;;;3.20;99.90;;;;;;5082046;28;20094;-48
2022/11/14 02:25:43;;;;;;;9.90;5.00;;;3.30;99.90;;;;;;5070967;28;20060;-48
2022/11/14 02:28:29;;;;;;;7.13;4.05;;;3.40;99.90;;;;;;5071108;28;20054;-47
2022/11/14 02:31:15;;;;;;;8.13;4.15;;;3.50;99.90;;;;;;5078354;28;20051;-48
2022/11/14 02:34:00;;;;;;;7.88;4.82;;;3.50;99.90;;;;;;5091318;28;20090;-49
2022/11/14 02:36:46;;;;;;;6.47;3.67;;;3.50;99.90;;;;;;5090457;28;20185;-47
2022/11/14 02:39:31;;;;;;;6.78;3.42;;;3.60;99.90;;;;;;5091369;28;20515;-49
2022/11/14 02:42:17;;;;;;;7.07;3.00;;;3.70;99.90;;;;;;5090715;28;20611;-48
2022/11/14 02:45:02;;;;;;;4.53;2.53;;;3.70;99.90;;;;;;5073029;28;20106;-47
2022/11/14 02:47:48;;;;;;;6.15;4.18;;;3.90;99.90;;;;;;5083528;28;20066;-47
2022/11/14 02:50:33;;;;;;;7.68;3.95;;;3.90;99.90;;;;;;5091027;28;20416;-49
2022/11/14 02:53:19;;;;;;;8.65;3.97;;;3.60;99.90;;;;;;5091045;28;20462;-47
2022/11/14 02:56:04;;;;;;;6.32;4.10;;;3.30;99.90;;;;;;5091813;28;20055;-48
2022/11/14 02:58:50;;;;;;;6.72;4.07;;;3.10;99.90;;;;;;5075154;28;20059;-48
2022/11/14 03:01:36;;;;;;;6.20;3.78;;;3.00;99.90;;;;;;5074368;28;20504;-48
2022/11/14 03:04:21;;;;;;;8.55;3.83;;;3.00;99.90;;;;;;5079119;28;20174;-48
2022/11/14 03:07:07;;;;;;;9.90;4.22;;;3.10;99.90;;;;;;5074072;28;20601;-45
2022/11/14 03:10:08;;;;;;;9.73;4.63;;;3.10;99.90;;;;;;5053822;28;20048;-48
2022/11/14 03:13:21;;;;;;;8.50;4.72;;;3.20;99.90;;;;;;5056249;28;20055;-51
2022/11/14 03:16:09;;;;;;;7.05;4.85;;;3.20;99.90;;;;;;5054831;28;20471;-47
2022/11/14 03:18:55;;;;;;;8.15;3.83;;;3.40;99.90;;;;;;5055055;28;20056;-47
2022/11/14 03:21:40;;;;;;;7.95;4.47;;;3.50;99.90;;;;;;5046990;28;20052;-49
2022/11/14 03:24:25;;;;;;;7.22;3.85;;;3.60;99.90;;;;;;5047988;28;20594;-48
2022/11/14 03:27:11;;;;;;;9.13;4.30;;;3.70;99.90;;;;;;5054408;28;20532;-51
2022/11/14 03:29:57;;;;;;;7.80;3.53;;;3.80;99.90;;;;;;5042543;28;20047;-49
2022/11/14 03:32:42;;;;;;;5.93;3.22;;;3.80;99.90;;;;;;5056159;28;20048;-47
2022/11/14 03:35:27;;;;;;;6.57;3.60;;;3.70;99.90;;;;;;5033588;28;20524;-46
2022/11/14 03:38:13;;;;;;;6.50;4.55;;;3.60;99.90;;;;;;5034489;28;20532;-47
2022/11/14 03:41:00;;;;;;;8.35;4.13;;;3.50;99.90;;;;;;5042109;28;20114;-49
2022/11/14 03:43:45;;;;;;;7.72;3.97;;;3.50;99.90;;;;;;5048288;28;20524;-49
2022/11/14 03:46:30;;;;;;;5.57;3.25;;;3.50;99.90;;;;;;5048198;28;20047;-49
2022/11/14 03:49:15;;;;;;;7.45;4.00;;;3.50;99.90;;;;;;5045095;28;20044;-49
2022/11/14 03:52:01;;;;;;;7.43;4.28;;;3.50;99.90;;;;;;5033443;28;20048;-49
2022/11/14 03:54:46;;;;;;;5.60;3.75;;;3.50;99.90;;;;;;5033953;28;20049;-48
2022/11/14 03:57:32;;;;;;;6.75;3.85;;;3.50;99.90;;;;;;5042099;28;20180;-47
2022/11/14 04:00:18;;;;;;;6.85;4.32;;;3.50;99.90;;;;;;5046183;28;20238;-48
2022/11/14 04:03:04;;;;;;;7.00;3.72;;;3.40;99.90;;;;;;5053321;28;20090;-47
2022/11/14 04:05:50;;;;;;;6.50;3.45;;;3.40;99.90;;;;;;5058266;28;20203;-48
2022/11/14 04:08:35;;;;;;;4.95;2.20;;;3.40;99.90;;;;;;5071784;28;20058;-49
2022/11/14 04:11:21;;;;;;;6.53;2.55;;;3.40;99.90;;;;;;5074044;28;20043;-47
2022/11/14 04:14:06;;;;;;;4.18;2.90;;;3.40;99.90;;;;;;5069597;28;20064;-48
2022/11/14 04:16:52;;;;;;;3.65;2.17;;;3.30;99.90;;;;;;5045409;28;20171;-46
2022/11/14 04:19:37;;;;;;;5.65;3.00;;;3.30;99.90;;;;;;5053871;28;20177;-48
2022/11/14 04:22:22;;;;;;;7.35;2.70;;;3.20;99.90;;;;;;5050471;28;20049;-47
2022/11/14 04:25:08;;;;;;;4.75;2.60;;;3.20;99.90;;;;;;5044628;28;20056;-46
2022/11/14 04:27:54;;;;;;;7.07;2.25;;;3.20;99.90;;;;;;5052384;28;20063;-47
2022/11/14 04:30:40;;;;;;;3.80;2.33;;;3.10;99.90;;;;;;5050868;28;20474;-47
2022/11/14 04:33:26;;;;;;;4.50;2.80;;;3.10;99.90;;;;;;5048530;28;20130;-47
2022/11/14 04:36:11;;;;;;;7.47;3.95;;;3.00;99.90;;;;;;5050732;28;20051;-49
2022/11/14 04:38:56;;;;;;;6.60;3.63;;;3.00;99.90;;;;;;5051277;28;20056;-48
2022/11/14 04:41:42;;;;;;;10.10;4.47;;;2.40;99.90;;;;;;5051813;28;20130;-49
2022/11/14 04:44:27;;;;;;;9.82;4.55;;;3.10;99.90;;;;;;5052851;28;20067;-50
2022/11/14 04:47:12;;;;;;;6.82;3.58;;;3.10;99.90;;;;;;5052694;28;20055;-48
2022/11/14 04:49:58;;;;;;;12.20;4.03;;;3.10;99.90;;;;;;5052162;28;20059;-49
2022/11/14 04:52:43;;;;;;;9.02;4.13;;;3.10;99.90;;;;;;5067645;28;20051;-47
2022/11/14 04:55:29;;;;;;;8.73;3.90;;;3.00;99.90;;;;;;5068323;28;20059;-50
2022/11/14 04:58:14;;;;;;;10.00;4.65;;;3.10;99.90;;;;;;5051068;28;20052;-47
2022/11/14 05:01:06;;;;;;;8.30;4.65;;;3.10;99.90;;;;;;5060738;28;20060;-48
2022/11/14 05:03:52;;;;;;;10.95;4.95;;;3.20;99.90;;;;;;5051563;28;20166;-47
2022/11/14 05:06:37;;;;;;;5.53;2.83;;;3.20;99.90;;;;;;5051565;28;20519;-47
2022/11/14 05:09:22;;;;;;;6.55;3.50;;;3.10;99.90;;;;;;5031825;28;20052;-49
2022/11/14 05:12:08;;;;;;;7.60;3.20;;;2.90;99.90;;;;;;5032562;28;20061;-46
2022/11/14 05:14:53;;;;;;;6.63;3.35;;;2.70;99.90;;;;;;5048700;28;20098;-50
2022/11/14 05:17:39;;;;;;;7.88;4.28;;;2.70;99.90;;;;;;5050351;28;20068;-46
2022/11/14 05:20:24;;;;;;;11.70;4.95;;;2.70;99.90;;;;;;5052751;28;20051;-47
2022/11/14 05:23:20;;;;;;;9.60;5.00;;;2.80;99.90;;;;;;5057012;28;20055;-46
2022/11/14 05:26:11;;;;;;;17.60;6.25;;;2.90;99.90;;;;;;5042990;28;20056;-47
2022/11/14 05:28:56;;;;;;;12.93;5.43;;;3.00;99.90;;;;;;5051184;28;20091;-51
2022/11/14 05:31:41;;;;;;;20.63;7.60;;;3.00;99.90;;;;;;5049601;28;20145;-48
2022/11/14 05:34:27;;;;;;;18.08;8.48;;;3.00;99.90;;;;;;5037395;28;20047;-47
2022/11/14 05:37:12;;;;;;;13.18;7.10;;;3.00;99.90;;;;;;5048205;28;20412;-48
2022/11/14 05:39:58;;;;;;;14.80;7.75;;;3.00;99.90;;;;;;5049425;28;20060;-47
2022/11/14 05:42:43;;;;;;;16.90;7.25;;;3.00;99.90;;;;;;5048049;28;20052;-50
2022/11/14 05:45:29;;;;;;;15.52;7.13;;;3.00;99.90;;;;;;5047942;28;20044;-47
2022/11/14 05:48:14;;;;;;;18.70;8.45;;;3.10;99.90;;;;;;5051230;28;20094;-47
2022/11/14 05:51:02;;;;;;;23.33;9.18;;;3.10;99.90;;;;;;5051632;28;20194;-50
2022/11/14 05:53:48;;;;;;;14.50;7.03;;;3.00;99.90;;;;;;5047619;28;20052;-48
2022/11/14 05:56:33;;;;;;;16.63;8.30;;;3.00;99.90;;;;;;5044940;28;20314;-48
2022/11/14 05:59:18;;;;;;;20.13;10.95;;;3.00;99.90;;;;;;5053111;28;20052;-47
2022/11/14 06:02:04;;;;;;;19.30;10.07;;;2.90;99.90;;;;;;5050186;28;20055;-51
2022/11/14 06:04:49;;;;;;;20.13;9.82;;;2.90;99.90;;;;;;5049932;28;20939;-50
2022/11/14 06:07:35;;;;;;;16.27;8.65;;;2.90;99.90;;;;;;5048742;28;20468;-47
2022/11/14 06:10:21;;;;;;;13.68;7.07;;;2.90;99.90;;;;;;5042691;28;20528;-51
2022/11/14 06:13:06;;;;;;;15.43;7.95;;;3.00;99.90;;;;;;5049302;28;20515;-49
2022/11/14 06:15:52;;;;;;;26.48;13.30;;;3.10;99.90;;;;;;5046792;28;20056;-50
2022/11/14 06:18:38;;;;;;;18.35;9.57;;;3.10;99.90;;;;;;5039649;28;20555;-50
2022/11/14 06:21:25;;;;;;;15.85;7.97;;;3.10;99.90;;;;;;5036743;28;20115;-48
2022/11/14 06:24:10;;;;;;;16.98;8.20;;;3.00;99.90;;;;;;5030016;28;20265;-48
2022/11/14 06:26:56;;;;;;;13.32;6.75;;;3.00;99.90;;;;;;5030155;28;20178;-48
2022/11/14 06:29:41;;;;;;;14.75;7.57;;;2.90;99.90;;;;;;5030899;28;20056;-47
2022/11/14 06:32:27;;;;;;;10.90;5.88;;;3.00;99.90;;;;;;5043993;28;20470;-48
2022/11/14 06:35:12;;;;;;;12.65;5.88;;;2.80;99.90;;;;;;5049169;28;20159;-48
2022/11/14 06:38:01;;;;;;;11.07;5.20;;;2.70;99.90;;;;;;5049637;28;20071;-48
2022/11/14 06:40:46;;;;;;;8.27;4.57;;;2.60;99.90;;;;;;5048460;28;20064;-47
2022/11/14 06:43:33;;;;;;;24.48;10.88;;;2.50;99.90;;;;;;5045589;28;20048;-47
2022/11/14 06:46:20;;;;;;;28.20;10.77;;;2.40;99.90;;;;;;5052149;28;20052;-47
2022/11/14 06:49:05;;;;;;;16.17;8.20;;;2.50;99.90;;;;;;5064747;28;20054;-50
2022/11/14 06:51:51;;;;;;;10.57;5.00;;;2.60;99.90;;;;;;5034452;28;20063;-49
2022/11/14 06:54:36;;;;;;;10.32;5.25;;;2.60;99.90;;;;;;5028017;28;20064;-47
2022/11/14 06:57:21;;;;;;;10.27;4.78;;;2.40;99.90;;;;;;5029532;28;20048;-47
2022/11/14 07:00:07;;;;;;;10.38;5.53;;;2.30;99.90;;;;;;5041538;28;20623;-47
2022/11/14 07:02:53;;;;;;;13.25;7.43;;;2.10;99.90;;;;;;5037251;28;20076;-47
2022/11/14 07:05:38;;;;;;;16.58;8.35;;;2.20;99.90;;;;;;5031970;28;20064;-47
2022/11/14 07:08:24;;;;;;;16.60;7.03;;;2.20;99.90;;;;;;5030654;28;20048;-47
2022/11/14 07:11:25;;;;;;;16.63;8.55;;;2.40;99.90;;;;;;5029901;28;20052;-48
2022/11/14 07:14:10;;;;;;;14.50;7.30;;;2.50;99.90;;;;;;5031111;28;20053;-48
2022/11/14 07:16:57;;;;;;;21.55;7.65;;;2.70;99.90;;;;;;5035595;28;20148;-47
2022/11/14 07:19:42;;;;;;;20.52;8.98;;;2.80;99.90;;;;;;5029646;28;20158;-47
2022/11/14 07:22:27;;;;;;;19.08;9.10;;;2.80;99.90;;;;;;5030437;28;20052;-49
2022/11/14 07:25:13;;;;;;;18.92;9.25;;;2.90;99.90;;;;;;5044965;28;20057;-47
2022/11/14 07:27:58;;;;;;;13.20;5.47;;;3.00;99.90;;;;;;5038833;28;20521;-47
2022/11/14 07:30:43;;;;;;;13.73;7.60;;;2.90;99.90;;;;;;5031214;28;20044;-47
2022/11/14 07:33:30;;;;;;;13.88;7.20;;;2.70;99.90;;;;;;5030950;28;20138;-48
2022/11/14 07:36:16;;;;;;;17.65;8.23;;;2.60;99.90;;;;;;5042607;28;20056;-47
2022/11/14 07:39:01;;;;;;;15.23;7.43;;;2.70;99.90;;;;;;5049747;28;20137;-48
2022/11/14 07:41:46;;;;;;;14.40;6.85;;;2.60;99.90;;;;;;5049551;28;20048;-47
2022/11/14 07:44:32;;;;;;;14.70;7.63;;;2.80;99.90;;;;;;5033434;28;20053;-47
2022/11/14 07:47:17;;;;;;;14.75;7.60;;;3.00;99.90;;;;;;5033984;28;20047;-50
2022/11/14 07:50:03;;;;;;;14.35;7.82;;;3.10;99.90;;;;;;5034190;28;20056;-47
2022/11/14 07:52:53;;;;;;;20.80;10.05;;;3.20;99.90;;;;;;5034337;28;20095;-48
2022/11/14 07:55:38;;;;;;;23.45;11.90;;;3.30;99.90;;;;;;5048680;28;20102;-48
2022/11/14 07:58:24;;;;;;;28.30;14.35;;;3.50;99.90;;;;;;5053531;28;20114;-47
2022/11/14 08:01:11;;;;;;;24.17;13.23;;;3.70;99.90;;;;;;5054685;28;20075;-48
2022/11/14 08:03:56;;;;;;;24.80;12.75;;;3.90;99.90;;;;;;5034090;28;20063;-47
2022/11/14 08:06:42;;;;;;;16.83;10.05;;;4.10;99.90;;;;;;5033406;28;20129;-47
2022/11/14 08:09:27;;;;;;;19.50;10.32;;;4.30;99.90;;;;;;5033539;28;20052;-47
2022/11/14 08:12:12;;;;;;;23.52;10.98;;;4.50;99.90;;;;;;5041870;28;20457;-49
2022/11/14 08:14:58;;;;;;;22.48;10.88;;;4.70;99.90;;;;;;5033009;28;20049;-47
2022/11/14 08:17:43;;;;;;;12.50;8.18;;;5.00;99.90;;;;;;5041745;28;20048;-47
2022/11/14 08:20:29;;;;;;;16.77;8.80;;;5.20;99.90;;;;;;5046775;28;20456;-47
2022/11/14 08:23:15;;;;;;;18.45;7.00;;;5.10;99.90;;;;;;5052521;28;20175;-47
2022/11/14 08:26:00;;;;;;;20.00;9.43;;;5.10;99.90;;;;;;5047274;28;20051;-47
2022/11/14 08:28:46;;;;;;;16.08;7.35;;;5.20;99.90;;;;;;5033501;28;20056;-48
2022/11/14 08:31:31;;;;;;;21.42;7.10;;;5.50;99.90;;;;;;5032581;28;20055;-48
2022/11/14 08:34:16;;;;;;;15.88;7.50;;;5.50;99.90;;;;;;5034459;28;20144;-49
2022/11/14 08:37:02;;;;;;;16.15;6.85;;;5.50;99.90;;;;;;5033018;28;20112;-48
2022/11/14 08:39:47;;;;;;;14.85;8.10;;;5.70;99.90;;;;;;5032877;28;20417;-50
2022/11/14 08:42:33;;;;;;;16.38;7.25;;;5.80;99.90;;;;;;5035290;28;20072;-47
2022/11/14 08:45:18;;;;;;;15.65;6.40;;;5.90;99.90;;;;;;5045374;28;20051;-47
2022/11/14 08:48:04;;;;;;;16.17;6.80;;;6.10;99.90;;;;;;5052237;28;20063;-48
2022/11/14 08:50:50;;;;;;;14.52;6.82;;;6.30;99.90;;;;;;5052590;28;20047;-49
2022/11/14 08:53:35;;;;;;;12.35;6.47;;;6.40;99.90;;;;;;5040340;28;20571;-48
2022/11/14 08:56:21;;;;;;;20.17;6.68;;;6.30;99.90;;;;;;5033006;28;20156;-47
2022/11/14 08:59:06;;;;;;;12.85;6.65;;;6.30;99.90;;;;;;5032018;28;20076;-48
2022/11/14 09:01:51;;;;;;;14.43;7.07;;;6.40;99.90;;;;;;5036581;28;20053;-50
2022/11/14 09:04:37;;;;;;;15.27;6.50;;;6.70;99.90;;;;;;5032953;28;20113;-47
2022/11/14 09:07:22;;;;;;;10.60;5.88;;;6.80;99.90;;;;;;5032450;28;20063;-45
2022/11/14 09:10:01;;;;;;;12.48;6.45;;;6.80;99.90;;;;;;5102199;22;20052;-48
2022/11/14 09:12:46;;;;;;;10.00;6.20;;;6.90;99.90;;;;;;5086026;28;20043;-48
2022/11/14 09:15:32;;;;;;;12.73;6.65;;;6.90;99.90;;;;;;5101073;28;20407;-47
2022/11/14 09:18:18;;;;;;;13.45;6.65;;;7.10;99.90;;;;;;5094187;28;20066;-47
2022/11/14 09:21:06;;;;;;;14.68;6.70;;;7.20;99.90;;;;;;5091961;28;20062;-47
2022/11/14 09:23:51;;;;;;;10.82;6.57;;;7.30;99.90;;;;;;5085957;28;20047;-48
2022/11/14 09:26:43;;;;;;;14.55;6.53;;;7.40;99.90;;;;;;5091153;28;20555;-48
2022/11/14 09:29:28;;;;;;;11.80;5.97;;;7.50;99.90;;;;;;5092635;28;20148;-47
2022/11/14 09:32:13;;;;;;;14.07;6.53;;;7.60;99.90;;;;;;5082773;28;20043;-47
2022/11/14 09:34:59;;;;;;;11.52;6.63;;;7.70;99.90;;;;;;5092046;28;20055;-47
2022/11/14 09:37:44;;;;;;;11.75;6.63;;;7.80;99.90;;;;;;5085065;28;20514;-47
2022/11/14 09:40:43;;;;;;;14.50;5.95;;;8.00;99.90;;;;;;5089229;28;20047;-47
2022/11/14 09:43:49;;;;;;;15.15;6.85;;;8.10;99.90;;;;;;5092030;28;20044;-47
2022/11/14 09:46:43;;;;;;;9.45;5.85;;;8.30;99.90;;;;;;5061650;28;20052;-47
2022/11/14 09:49:39;;;;;;;10.68;6.30;;;8.30;99.90;;;;;;5064295;28;20073;-48
2022/11/14 09:52:25;;;;;;;14.77;6.68;;;8.40;99.90;;;;;;5071039;28;20040;-47
2022/11/14 09:55:18;;;;;;;12.70;5.97;;;8.50;99.90;;;;;;5070226;28;20063;-47
2022/11/14 09:58:07;;;;;;;9.80;5.50;;;8.60;99.90;;;;;;5069670;28;20405;-47
2022/11/14 10:01:04;;;;;;;14.50;5.70;;;8.70;99.90;;;;;;5071174;28;20121;-48
2022/11/14 10:04:07;;;;;;;7.28;3.85;;;8.90;99.90;;;;;;5070405;28;20052;-48
2022/11/14 10:07:12;;;;;;;8.02;3.63;;;9.00;99.90;;;;;;5090932;28;20051;-47
2022/11/14 10:10:39;;;;;;;4.53;2.75;;;9.10;99.90;;;;;;5074472;28;20067;-47
2022/11/14 10:13:38;;;;;;;6.45;3.35;;;9.20;99.90;;;;;;5091144;28;20085;-47
2022/11/14 10:16:30;;;;;;;3.83;2.60;;;9.40;99.90;;;;;;5091733;28;20133;-48
2022/11/14 10:19:34;;;;;;;4.53;3.05;;;9.50;99.90;;;;;;5071429;28;20138;-47
2022/11/14 10:22:52;;;;;;;5.07;2.90;;;9.70;99.90;;;;;;5063145;28;20172;-47
2022/11/14 10:26:09;;;;;;;6.30;2.83;;;9.90;99.90;;;;;;5091590;28;20051;-48
2022/11/14 10:29:15;;;;;;;5.10;2.67;;;10.10;99.90;;;;;;5091653;28;20519;-47
2022/11/14 10:32:11;;;;;;;4.55;2.92;;;10.20;99.90;;;;;;5075305;28;20048;-48
2022/11/14 10:35:20;;;;;;;5.25;2.63;;;10.30;99.90;;;;;;5086638;28;20412;-48
2022/11/14 10:38:37;;;;;;;4.75;2.80;;;10.30;99.90;;;;;;5091422;28;20117;-47
2022/11/14 10:41:25;;;;;;;8.38;2.60;;;10.30;99.90;;;;;;5087613;28;20071;-48
2022/11/14 10:44:41;;;;;;;4.95;3.17;;;10.40;99.90;;;;;;5078763;28;20055;-47
2022/11/14 10:47:34;;;;;;;6.90;3.53;;;10.40;99.90;;;;;;5091183;28;20146;-50
2022/11/14 10:50:23;;;;;;;4.63;2.90;;;10.60;99.90;;;;;;5080456;28;20047;-48
2022/11/14 10:53:50;;;;;;;5.38;2.33;;;10.70;99.90;;;;;;5068907;28;20412;-47
2022/11/14 10:56:52;;;;;;;4.80;2.45;;;10.80;99.90;;;;;;5009310;28;20061;-48
2022/11/14 10:59:37;;;;;;;12.65;2.28;;;10.90;99.90;;;;;;5003907;28;20540;-49
2022/11/14 11:02:22;;;;;;;3.80;2.03;;;10.80;99.90;;;;;;5069629;28;20056;-48
2022/11/14 11:05:15;;;;;;;3.45;2.08;;;10.80;99.90;;;;;;5069155;28;20044;-48
2022/11/14 11:11:30;;;;;;;5.38;2.05;;;10.80;99.90;;;;;;5050676;28;20109;-49
2022/11/14 11:14:18;;;;;;;3.10;1.77;;;10.70;99.90;;;;;;5052811;28;20047;-47
2022/11/14 11:17:10;;;;;;;3.20;1.70;;;10.80;99.90;;;;;;5086531;28;20108;-49
2022/11/14 11:20:36;;;;;;;5.03;2.47;;;10.90;99.90;;;;;;5054570;28;20052;-47
2022/11/14 11:23:25;;;;;;;4.18;2.45;;;11.00;99.90;;;;;;5058198;28;20066;-48
2022/11/14 11:26:30;;;;;;;3.20;1.80;;;11.10;99.90;;;;;;5093343;28;20304;-48
2022/11/14 11:29:18;;;;;;;4.22;2.42;;;11.20;99.90;;;;;;5094128;28;20055;-47
2022/11/14 11:32:04;;;;;;;4.07;2.10;;;11.20;99.90;;;;;;5094614;28;20182;-47
2022/11/14 11:34:50;;;;;;;5.90;2.40;;;11.20;99.90;;;;;;5090639;28;20411;-49
2022/11/14 11:37:53;;;;;;;4.65;2.55;;;11.20;99.90;;;;;;5054199;28;20570;-47
2022/11/14 11:40:40;;;;;;;13.95;3.92;;;11.20;99.90;;;;;;5054851;28;20171;-48
2022/11/14 11:43:40;;;;;;;8.70;4.03;;;11.20;99.90;;;;;;5079363;28;20055;-48
2022/11/14 11:46:46;;;;;;;8.13;4.10;;;11.30;99.90;;;;;;5094820;28;20511;-48
2022/11/14 11:49:32;;;;;;;11.30;4.07;;;11.30;99.90;;;;;;5094479;28;20101;-48
2022/11/14 11:52:42;;;;;;;15.43;4.53;;;11.40;99.90;;;;;;5089829;28;20049;-49
2022/11/14 11:55:32;;;;;;;5.72;3.70;;;11.70;99.90;;;;;;5094442;28;20149;-47
2022/11/14 11:58:26;;;;;;;5.45;3.38;;;11.70;99.90;;;;;;5094289;28;20051;-48
2022/11/14 12:01:13;;;;;;;5.72;3.53;;;11.70;99.90;;;;;;5069798;28;20124;-47
2022/11/14 12:04:00;;;;;;;5.90;3.45;;;11.90;99.90;;;;;;5093816;28;20074;-45
2022/11/14 12:07:03;;;;;;;7.25;3.33;;;12.00;99.90;;;;;;5093949;28;20051;-47
2022/11/14 12:09:49;;;;;;;7.03;3.38;;;12.00;99.90;;;;;;5069452;28;20068;-47
2022/11/14 12:13:13;;;;;;;5.38;2.95;;;12.10;99.90;;;;;;5084949;28;20519;-47
2022/11/14 12:16:40;;;;;;;15.85;3.97;;;12.00;99.90;;;;;;5094097;28;20051;-48
2022/11/14 12:19:37;;;;;;;5.78;2.95;;;12.10;99.90;;;;;;5079208;28;20043;-49
2022/11/14 12:22:34;;;;;;;7.50;2.90;;;12.10;99.90;;;;;;5093604;28;20054;-47
2022/11/14 12:25:34;;;;;;;7.88;2.67;;;12.30;99.90;;;;;;5093633;28;20400;-48
2022/11/14 12:28:58;;;;;;;4.18;2.72;;;12.50;99.90;;;;;;5065826;28;20121;-48
2022/11/14 12:31:45;;;;;;;3.95;2.25;;;12.40;99.90;;;;;;5083967;28;20051;-48
2022/11/14 12:34:32;;;;;;;4.10;2.60;;;12.50;99.90;;;;;;5089712;28;20526;-47
2022/11/14 12:37:28;;;;;;;5.50;2.65;;;12.60;99.90;;;;;;5093351;28;20052;-47
2022/11/14 12:40:38;;;;;;;10.68;3.50;;;12.60;99.90;;;;;;5093533;28;20044;-48
2022/11/14 12:43:37;;;;;;;4.63;3.25;;;12.60;99.90;;;;;;5089332;28;20078;-48
2022/11/14 12:46:22;;;;;;;8.98;3.42;;;12.70;99.90;;;;;;5093063;28;20177;-48
2022/11/14 12:49:48;;;;;;;9.07;3.20;;;12.70;99.90;;;;;;5093295;28;20241;-48
2022/11/14 12:52:40;;;;;;;6.15;3.00;;;12.80;99.90;;;;;;5073717;28;20151;-47
2022/11/14 12:55:25;;;;;;;5.47;3.03;;;12.80;99.90;;;;;;5093492;28;20051;-49
2022/11/14 12:58:19;;;;;;;6.28;3.13;;;12.70;99.90;;;;;;5092804;28;20425;-47
2022/11/14 13:01:27;;;;;;;19.35;8.35;;;12.70;99.90;;;;;;5079975;28;20405;-48
2022/11/14 13:04:17;;;;;;;13.05;6.57;;;12.50;99.90;;;;;;5092986;28;20047;-47
2022/11/14 13:07:27;;;;;;;9.45;4.47;;;12.50;99.90;;;;;;5092853;28;20502;-47
2022/11/14 13:10:38;;;;;;;63.58;24.95;;;12.40;99.90;;;;;;5082391;28;20512;-48
2022/11/14 13:22:49;;;;;;;9.40;5.43;;;12.70;99.90;;;;;;5092374;28;20051;-48
2022/11/14 13:25:34;;;;;;;11.07;5.93;;;12.80;99.90;;;;;;5091595;28;20408;-49
2022/11/14 13:28:48;;;;;;;10.07;5.20;;;13.00;99.90;;;;;;5064528;28;20051;-51
2022/11/14 13:31:44;;;;;;;10.50;5.18;;;13.20;99.90;;;;;;5072126;28;20141;-48
2022/11/14 13:34:35;;;;;;;9.20;4.68;;;13.40;99.90;;;;;;5063971;28;20074;-48
2022/11/14 13:37:42;;;;;;;11.70;5.68;;;13.50;99.90;;;;;;5077268;28;20065;-48
2022/11/14 13:40:39;;;;;;;12.15;5.57;;;13.60;99.90;;;;;;5091569;28;20055;-48
2022/11/14 13:44:03;;;;;;;10.95;6.05;;;13.60;99.90;;;;;;5091917;28;20511;-49
2022/11/14 13:47:17;;;;;;;16.58;4.72;;;13.60;99.90;;;;;;5068369;28;20048;-48
2022/11/14 13:50:09;;;;;;;7.70;4.10;;;13.50;99.90;;;;;;5088634;28;20085;-48
2022/11/14 13:52:55;;;;;;;9.90;3.55;;;13.30;99.90;;;;;;5091458;28;20435;-47
2022/11/14 13:55:55;;;;;;;23.05;4.72;;;13.30;99.90;;;;;;5075956;28;20047;-48
2022/11/14 13:58:49;;;;;;;12.18;4.80;;;13.20;99.90;;;;;;5051555;28;20048;-47
2022/11/14 14:02:06;;;;;;;9.38;4.13;;;13.20;99.90;;;;;;5074956;28;20051;-49
2022/11/14 14:05:13;;;;;;;9.88;4.03;;;13.20;99.90;;;;;;5091851;28;20051;-47
2022/11/14 14:08:14;;;;;;;9.70;4.18;;;13.20;99.90;;;;;;5091808;28;20404;-48
2022/11/14 14:11:18;;;;;;;8.73;3.75;;;13.10;99.90;;;;;;5083673;28;20059;-48
2022/11/14 14:14:22;;;;;;;7.63;4.70;;;13.10;99.90;;;;;;5091558;28;20522;-48
2022/11/14 14:17:44;;;;;;;6.95;3.25;;;13.00;99.90;;;;;;5091944;28;20412;-50
2022/11/14 14:20:43;;;;;;;8.65;4.93;;;13.00;99.90;;;;;;5076294;28;20051;-48
2022/11/14 14:23:54;;;;;;;9.05;5.10;;;12.90;99.90;;;;;;5077999;28;20051;-47
2022/11/14 14:27:01;;;;;;;12.55;5.72;;;12.80;99.90;;;;;;5066370;28;20630;-49
2022/11/14 14:29:54;;;;;;;8.15;3.47;;;12.70;99.90;;;;;;5091398;28;20055;-48
2022/11/14 14:32:39;;;;;;;8.90;3.88;;;12.50;99.90;;;;;;5078885;28;20042;-49
2022/11/14 14:35:28;;;;;;;5.38;3.25;;;12.20;99.90;;;;;;5091248;28;20046;-48
2022/11/14 14:38:25;;;;;;;6.15;2.17;;;12.00;99.90;;;;;;5083286;28;20043;-47
2022/11/14 14:41:13;;;;;;;5.72;2.65;;;12.00;99.90;;;;;;5091044;28;20518;-48
2022/11/14 14:43:59;;;;;;;4.90;2.47;;;12.20;99.90;;;;;;5092084;28;20051;-48
2022/11/14 14:46:44;;;;;;;6.10;3.05;;;12.10;99.90;;;;;;5075653;28;20048;-48
2022/11/14 14:49:34;;;;;;;4.10;3.40;;;12.10;99.90;;;;;;5080452;28;20047;-49
2022/11/14 14:52:35;;;;;;;4.65;3.60;;;12.20;99.90;;;;;;5092512;28;20177;-47
2022/11/14 14:55:39;;;;;;;10.77;4.60;;;12.20;99.90;;;;;;5095713;28;20043;-48
2022/11/14 14:58:28;;;;;;;8.95;4.47;;;12.10;99.90;;;;;;5080531;28;20043;-48
2022/11/14 15:01:20;;;;;;;7.57;4.97;;;12.00;99.90;;;;;;5095190;28;20058;-48
2022/11/14 15:04:07;;;;;;;7.30;4.63;;;11.90;99.90;;;;;;5092594;28;20070;-48